Time;durP1;ratioP1;P1;durP2;ratioP2;P2;SDS_P1;SDS_P2;PMS_P1;PMS_P2;Temp;Humidity;BMP_temperature;BMP_pressure;BME280_temperature;BME280_humidity;BME280_pressure;Samples;Min_cycle;Max_cycle;Signal;HPM_P1;HPM_P2
2023/09/03 00:01:08;;;;;;;10.88;6.63;;;;;;;17.37;nan;101019.69;5009420;28;20494;-74
2023/09/03 00:03:34;;;;;;;11.68;6.63;;;;;;;17.36;nan;101018.13;5011453;28;20369;-74
2023/09/03 00:05:59;;;;;;;10.77;6.93;;;;;;;17.23;nan;101009.47;4993482;28;20447;-74
2023/09/03 00:08:24;;;;;;;9.40;6.80;;;;;;;17.25;nan;101008.44;5011967;28;20105;-76
2023/09/03 00:10:51;;;;;;;10.18;6.70;;;;;;;17.27;nan;101019.63;5022533;28;20018;-75
2023/09/03 00:13:17;;;;;;;10.10;6.57;;;;;;;17.15;nan;101001.97;4997033;28;20081;-74
2023/09/03 00:15:42;;;;;;;9.50;6.15;;;;;;;17.16;nan;101000.91;4974079;28;20061;-76
2023/09/03 00:18:11;;;;;;;10.27;6.90;;;;;;;17.21;nan;101005.47;4991134;28;20026;-73
2023/09/03 00:20:37;;;;;;;10.00;6.03;;;;;;;17.19;nan;101005.72;4990431;28;20596;-74
2023/09/03 00:23:02;;;;;;;11.38;7.38;;;;;;;17.11;nan;100992.88;4989919;28;20031;-74
2023/09/03 00:25:28;;;;;;;10.45;6.22;;;;;;;17.13;nan;100993.44;4991156;28;20113;-74
2023/09/03 00:27:53;;;;;;;13.75;6.45;;;;;;;17.14;nan;100997.72;4989411;28;20022;-74
2023/09/03 00:30:18;;;;;;;7.93;6.03;;;;;;;17.03;nan;100998.66;4990938;28;20117;-74
2023/09/03 00:32:44;;;;;;;10.45;6.30;;;;;;;16.83;nan;100977.19;4990757;28;20113;-74
2023/09/03 00:35:09;;;;;;;10.15;6.70;;;;;;;16.96;nan;100990.91;4990306;28;20030;-74
2023/09/03 00:37:34;;;;;;;11.00;6.18;;;;;;;16.89;nan;100979.66;4990474;28;20085;-74
2023/09/03 00:40:02;;;;;;;9.80;6.15;;;;;;;16.90;nan;100975.94;4990458;28;20025;-75
2023/09/03 00:42:27;;;;;;;11.77;6.50;;;;;;;16.98;nan;100988.00;4989988;28;20018;-74
2023/09/03 00:44:53;;;;;;;9.23;6.32;;;;;;;17.01;nan;100982.16;4988581;28;20026;-74
2023/09/03 00:47:18;;;;;;;10.63;6.38;;;;;;;17.01;nan;100980.28;4987551;28;20033;-75
2023/09/03 00:49:44;;;;;;;10.32;6.53;;;;;;;16.97;nan;100981.84;4972683;28;20951;-75
2023/09/03 00:52:11;;;;;;;9.68;6.05;;;;;;;16.91;nan;100985.53;4990070;28;20057;-75
2023/09/03 00:54:37;;;;;;;17.02;6.68;;;;;;;16.77;nan;100977.13;4989003;28;20366;-73
2023/09/03 00:57:03;;;;;;;12.43;6.25;;;;;;;16.77;nan;100984.31;4988743;28;20076;-76
2023/09/03 00:59:29;;;;;;;9.90;6.30;;;;;;;16.79;nan;100992.88;4989223;28;20034;-73
2023/09/03 01:01:55;;;;;;;9.70;6.43;;;;;;;16.78;nan;100983.25;4986938;28;20389;-76
2023/09/03 01:04:21;;;;;;;12.90;6.15;;;;;;;16.77;nan;100985.09;4989284;28;20088;-76
2023/09/03 01:06:51;;;;;;;11.23;6.10;;;;;;;16.70;nan;100973.06;4969072;28;20117;-76
2023/09/03 01:09:17;;;;;;;8.57;5.85;;;;;;;16.74;nan;100972.31;4988068;28;20045;-76
2023/09/03 01:12:07;;;;;;;9.38;5.93;;;;;;;16.81;nan;100990.75;4988099;28;20450;-75
2023/09/03 01:14:39;;;;;;;11.75;5.72;;;;;;;16.81;nan;100985.44;4987074;28;20030;-75
2023/09/03 01:17:14;;;;;;;9.18;5.75;;;;;;;16.82;nan;100983.59;4987302;28;20055;-74
2023/09/03 01:20:05;;;;;;;9.00;5.95;;;;;;;16.82;nan;100976.41;4972001;28;20036;-75
2023/09/03 01:22:42;;;;;;;8.73;5.38;;;;;;;16.83;nan;100974.53;4987888;28;20389;-76
2023/09/03 01:25:44;;;;;;;11.05;5.43;;;;;;;16.80;nan;100973.97;4989663;28;20106;-75
2023/09/03 01:28:27;;;;;;;7.82;5.10;;;;;;;16.63;nan;100962.63;4990093;28;20026;-75
2023/09/03 01:30:58;;;;;;;8.57;5.85;;;;;;;16.42;nan;100939.56;4988297;28;20030;-76
2023/09/03 01:33:26;;;;;;;7.80;5.45;;;;;;;16.50;nan;100969.16;4988820;28;20026;-76
2023/09/03 01:35:54;;;;;;;7.90;5.68;;;;;;;16.56;nan;100978.78;4989128;28;20023;-76
2023/09/03 01:38:21;;;;;;;10.05;5.68;;;;;;;16.54;nan;100977.41;4989023;28;20027;-75
2023/09/03 01:40:57;;;;;;;7.00;5.40;;;;;;;16.55;nan;100985.16;4989371;28;20056;-76
2023/09/03 01:43:23;;;;;;;13.07;5.40;;;;;;;16.49;nan;100969.41;4987258;28;20092;-75
2023/09/03 01:46:07;;;;;;;11.07;5.50;;;;;;;16.57;nan;100974.28;4989519;28;20034;-76
2023/09/03 01:48:54;;;;;;;10.63;5.75;;;;;;;16.56;nan;100978.78;4990892;28;20026;-76
2023/09/03 01:51:34;;;;;;;8.27;5.82;;;;;;;16.55;nan;100976.38;5002535;28;20062;-75
2023/09/03 01:54:12;;;;;;;12.50;5.50;;;;;;;16.52;nan;100968.88;4988785;28;20042;-76
2023/09/03 01:56:42;;;;;;;9.60;5.97;;;;;;;16.45;nan;100969.09;4987601;28;20034;-76
2023/09/03 01:59:40;;;;;;;12.68;5.65;;;;;;;16.43;nan;100965.09;4990042;28;20488;-76
2023/09/03 02:02:06;;;;;;;8.88;5.55;;;;;;;16.36;nan;100957.31;4987030;28;20092;-75
2023/09/03 02:04:32;;;;;;;10.00;5.95;;;;;;;16.35;nan;100956.50;4987530;28;20038;-74
2023/09/03 02:06:57;;;;;;;9.13;6.43;;;;;;;16.32;nan;100970.28;4988952;28;20143;-76
2023/09/03 02:09:22;;;;;;;8.15;6.03;;;;;;;16.29;nan;100967.34;4988472;28;20065;-74
2023/09/03 02:11:49;;;;;;;9.85;6.18;;;;;;;16.28;nan;100961.22;4967066;28;20753;-71
2023/09/03 02:14:14;;;;;;;9.43;5.57;;;;;;;16.23;nan;100963.78;4988739;28;20042;-74
2023/09/03 02:16:40;;;;;;;8.73;5.80;;;;;;;16.17;nan;100956.84;4989551;28;20600;-74
2023/09/03 02:19:05;;;;;;;11.63;5.55;;;;;;;16.01;nan;100944.41;4989705;28;20038;-75
2023/09/03 02:21:30;;;;;;;12.85;5.43;;;;;;;16.00;nan;100948.94;4969302;28;20038;-75
2023/09/03 02:23:56;;;;;;;9.00;5.20;;;;;;;16.02;nan;100954.81;4990247;28;20042;-75
2023/09/03 02:26:21;;;;;;;6.15;5.18;;;;;;;15.88;nan;100940.28;4988028;28;20026;-75
2023/09/03 02:28:47;;;;;;;7.53;4.95;;;;;;;15.85;nan;100936.28;4990372;28;20084;-75
2023/09/03 02:31:12;;;;;;;8.10;5.25;;;;;;;15.59;nan;100927.13;4987553;28;20535;-75
2023/09/03 02:33:38;;;;;;;9.82;5.28;;;;;;;15.72;nan;100948.03;4989210;28;20030;-75
2023/09/03 02:36:03;;;;;;;7.68;5.10;;;;;;;15.74;nan;100947.81;4987433;28;20034;-75
2023/09/03 02:38:29;;;;;;;7.85;4.85;;;;;;;15.64;nan;100937.81;4986691;28;20061;-74
2023/09/03 02:40:54;;;;;;;7.05;4.97;;;;;;;15.64;nan;100937.03;4972269;28;20552;-72
2023/09/03 02:43:19;;;;;;;8.98;5.30;;;;;;;15.57;nan;100931.88;4989572;28;20037;-71
2023/09/03 02:45:45;;;;;;;6.95;4.70;;;;;;;15.46;nan;100925.63;4988071;28;20026;-72
2023/09/03 02:48:10;;;;;;;6.95;4.90;;;;;;;15.44;nan;100927.75;4987028;28;20034;-71
2023/09/03 02:50:36;;;;;;;7.57;5.20;;;;;;;15.55;nan;100938.50;4988346;28;20114;-73
2023/09/03 02:53:06;;;;;;;10.48;5.03;;;;;;;15.39;nan;100935.59;4988716;28;20023;-72
2023/09/03 02:55:32;;;;;;;9.90;5.00;;;;;;;15.33;nan;100936.59;4986525;28;20144;-70
2023/09/03 02:57:57;;;;;;;12.27;5.78;;;;;;;15.38;nan;100944.63;4988786;28;20505;-73
2023/09/03 03:00:23;;;;;;;10.02;4.90;;;;;;;15.25;nan;100929.84;4987312;28;20111;-72
2023/09/03 03:02:49;;;;;;;10.85;5.30;;;;;;;15.35;nan;100950.41;4989084;28;20428;-72
2023/09/03 03:05:15;;;;;;;7.97;5.20;;;;;;;15.34;nan;100955.97;4986727;28;20054;-72
2023/09/03 03:07:44;;;;;;;10.80;5.00;;;;;;;15.29;nan;100946.88;4988108;28;20065;-72
2023/09/03 03:10:11;;;;;;;7.65;4.85;;;;;;;15.24;nan;100940.69;4987254;28;20037;-72
2023/09/03 03:12:37;;;;;;;7.47;5.25;;;;;;;15.27;nan;100948.97;4978445;28;20038;-72
2023/09/03 03:15:03;;;;;;;8.07;5.25;;;;;;;15.28;nan;100955.88;4990040;28;20030;-71
2023/09/03 03:17:28;;;;;;;9.98;5.15;;;;;;;15.35;nan;100954.91;5006079;28;20080;-72
2023/09/03 03:19:54;;;;;;;6.72;4.63;;;;;;;15.29;nan;100946.06;5004580;28;20173;-71
2023/09/03 03:22:19;;;;;;;6.55;4.50;;;;;;;15.30;nan;100947.69;5005450;28;20026;-71
2023/09/03 03:24:45;;;;;;;7.93;4.70;;;;;;;15.26;nan;100957.19;5006865;28;20036;-72
2023/09/03 03:27:10;;;;;;;7.35;4.70;;;;;;;15.28;nan;100952.44;5005837;28;20029;-71
2023/09/03 03:29:35;;;;;;;5.93;4.70;;;;;;;15.16;nan;100933.16;5006578;28;20058;-73
2023/09/03 03:32:01;;;;;;;10.30;4.63;;;;;;;15.27;nan;100956.13;5006714;28;20022;-72
2023/09/03 03:34:26;;;;;;;10.07;5.03;;;;;;;15.25;nan;100955.56;4988831;28;20480;-70
2023/09/03 03:36:53;;;;;;;10.48;4.68;;;;;;;15.30;nan;100961.75;4990902;28;20546;-70
2023/09/03 03:39:19;;;;;;;7.47;4.85;;;;;;;15.18;nan;100955.75;5006692;28;20022;-73
2023/09/03 03:41:45;;;;;;;7.22;4.30;;;;;;;15.06;nan;100957.66;5005909;28;20365;-72
2023/09/03 03:44:11;;;;;;;6.20;4.50;;;;;;;15.01;nan;100963.69;5005790;28;20089;-70
2023/09/03 03:46:37;;;;;;;8.63;4.88;;;;;;;14.94;nan;100963.06;4989845;28;20025;-70
2023/09/03 03:49:03;;;;;;;9.00;5.10;;;;;;;14.89;nan;100947.03;5006712;28;20541;-71
2023/09/03 03:51:28;;;;;;;8.25;4.88;;;;;;;14.94;nan;100955.09;5007127;28;20495;-73
2023/09/03 03:53:55;;;;;;;6.22;4.40;;;;;;;14.91;nan;100963.50;5006804;28;20022;-73
2023/09/03 03:56:21;;;;;;;6.95;5.25;;;;;;;14.88;nan;100967.44;5006558;28;20072;-70
2023/09/03 03:58:47;;;;;;;6.40;4.53;;;;;;;14.85;nan;100967.94;5007901;28;20072;-72
2023/09/03 04:01:20;;;;;;;8.32;4.78;;;;;;;14.88;nan;100979.91;5006376;28;20434;-73
2023/09/03 04:03:51;;;;;;;5.32;4.65;;;;;;;14.89;nan;100977.03;5006962;28;20026;-72
2023/09/03 04:06:16;;;;;;;5.47;4.50;;;;;;;14.92;nan;100980.22;5007558;28;20483;-72
2023/09/03 04:08:43;;;;;;;9.20;4.68;;;;;;;14.88;nan;100971.94;5007960;28;20081;-72
2023/09/03 04:11:10;;;;;;;6.85;4.68;;;;;;;14.94;nan;100988.75;5006520;28;20072;-72
2023/09/03 04:13:37;;;;;;;9.48;4.40;;;;;;;14.99;nan;100994.13;4990915;28;20042;-73
2023/09/03 04:16:10;;;;;;;10.38;3.95;;;;;;;14.94;nan;100986.09;4986941;28;20034;-72
2023/09/03 04:18:36;;;;;;;5.82;4.45;;;;;;;14.73;nan;100977.00;4985891;28;20069;-72
2023/09/03 04:21:01;;;;;;;6.82;4.13;;;;;;;14.72;nan;101000.03;4987366;28;20027;-72
2023/09/03 04:23:27;;;;;;;6.10;4.45;;;;;;;14.58;nan;100985.44;4969937;28;20038;-71
2023/09/03 04:25:52;;;;;;;7.95;4.97;;;;;;;14.62;nan;100992.69;4985917;28;20113;-71
2023/09/03 04:28:21;;;;;;;9.77;4.60;;;;;;;14.56;nan;100982.25;4987599;28;20419;-72
2023/09/03 04:30:51;;;;;;;8.45;4.30;;;;;;;14.57;nan;100983.84;4965392;28;21029;-72
2023/09/03 04:33:16;;;;;;;5.95;4.50;;;;;;;14.62;nan;100987.41;4990365;28;20589;-71
2023/09/03 04:35:42;;;;;;;8.25;4.25;;;;;;;14.59;nan;100987.06;4987661;28;20030;-72
2023/09/03 04:38:08;;;;;;;9.77;4.50;;;;;;;14.71;nan;100997.63;4989200;28;20070;-72
2023/09/03 04:40:34;;;;;;;7.25;4.22;;;;;;;14.72;nan;100991.28;4990579;28;20018;-74
2023/09/03 04:43:00;;;;;;;7.88;4.97;;;;;;;14.71;nan;100984.38;4989642;28;20069;-75
2023/09/03 04:45:26;;;;;;;10.63;4.55;;;;;;;14.89;nan;100994.75;4989047;28;20022;-75
2023/09/03 04:47:51;;;;;;;11.63;5.07;;;;;;;14.97;nan;101002.34;4989763;28;20082;-74
2023/09/03 04:50:21;;;;;;;14.18;5.47;;;;;;;14.99;nan;100991.47;4971630;28;20065;-74
2023/09/03 04:52:48;;;;;;;11.52;5.05;;;;;;;15.02;nan;100997.13;4970560;28;20022;-71
2023/09/03 04:55:14;;;;;;;9.68;5.35;;;;;;;15.02;nan;100996.31;4971691;28;20038;-73
2023/09/03 04:57:40;;;;;;;7.72;4.88;;;;;;;15.15;nan;100998.66;4988592;28;20032;-73
2023/09/03 05:00:07;;;;;;;10.65;4.78;;;;;;;15.17;nan;100991.25;4988123;28;20113;-72
2023/09/03 05:02:33;;;;;;;8.23;4.75;;;;;;;15.23;nan;100992.97;4989784;28;20054;-73
2023/09/03 05:04:58;;;;;;;7.10;4.57;;;;;;;15.26;nan;100992.47;4971229;28;20062;-72
2023/09/03 05:07:24;;;;;;;8.57;4.68;;;;;;;15.37;nan;100993.44;4984674;28;20034;-72
2023/09/03 05:09:53;;;;;;;7.70;4.70;;;;;;;15.47;nan;100998.91;4984105;28;20101;-72
2023/09/03 05:12:18;;;;;;;;;;;;;;;15.49;nan;101002.13;4990168;28;20035;-71
2023/09/03 05:14:44;;;;;;;7.40;4.15;;;;;;;15.49;nan;100986.19;4988804;28;19944;-73
2023/09/03 05:17:09;;;;;;;6.97;4.75;;;;;;;15.62;nan;100998.31;4989132;28;20022;-73
2023/09/03 05:19:34;;;;;;;9.15;4.53;;;;;;;15.65;nan;100995.16;4969240;28;20034;-70
2023/09/03 05:22:00;;;;;;;6.30;4.15;;;;;;;15.63;nan;100983.97;4970737;28;20030;-72
2023/09/03 05:24:25;;;;;;;7.40;4.05;;;;;;;15.82;nan;100995.16;4985084;28;20130;-72
2023/09/03 05:26:51;;;;;;;6.78;4.70;;;;;;;15.82;nan;100983.75;4988419;28;20088;-71
2023/09/03 05:29:17;;;;;;;9.27;4.50;;;;;;;15.92;nan;100991.84;4989328;28;20096;-72
2023/09/03 05:31:43;;;;;;;11.95;4.45;;;;;;;15.95;nan;100988.72;4989864;28;20028;-73
2023/09/03 05:34:08;;;;;;;5.53;4.50;;;;;;;16.02;nan;100994.66;4987551;28;20026;-73
2023/09/03 05:36:33;;;;;;;11.40;4.53;;;;;;;16.09;nan;100994.44;4971895;28;20388;-73
2023/09/03 05:38:59;;;;;;;7.18;4.28;;;;;;;16.14;nan;101005.97;4988532;28;20025;-73
2023/09/03 05:41:24;;;;;;;5.78;4.43;;;;;;;16.16;nan;101000.38;4969899;28;20050;-73
2023/09/03 05:43:53;;;;;;;7.32;4.97;;;;;;;16.18;nan;100995.63;4988097;28;20720;-74
2023/09/03 05:46:19;;;;;;;8.15;4.53;;;;;;;16.35;nan;100999.03;4989029;28;20105;-73
2023/09/03 05:48:49;;;;;;;7.57;4.95;;;;;;;16.40;nan;100997.47;4965770;28;20588;-74
2023/09/03 05:51:14;;;;;;;;;;;;;;;16.61;nan;101015.25;4990720;28;20022;-74
2023/09/03 05:53:39;;;;;;;10.23;4.30;;;;;;;16.72;nan;101005.53;4990593;28;20051;-75
2023/09/03 05:56:09;;;;;;;10.18;5.85;;;;;;;16.84;nan;101008.06;4987150;28;20029;-76
2023/09/03 05:58:35;;;;;;;12.13;6.75;;;;;;;16.92;nan;100997.75;4965927;28;20026;-75
2023/09/03 06:01:04;;;;;;;13.00;7.07;;;;;;;17.08;nan;101009.34;4990665;28;20022;-75
2023/09/03 06:03:30;;;;;;;9.35;4.95;;;;;;;17.15;nan;100995.84;4989172;28;20489;-75
2023/09/03 06:05:55;;;;;;;6.38;4.60;;;;;;;17.26;nan;101002.03;4992339;28;20057;-74
2023/09/03 06:08:20;;;;;;;8.57;4.50;;;;;;;17.35;nan;101000.50;4990160;28;20041;-75
2023/09/03 06:10:46;;;;;;;10.25;4.40;;;;;;;17.37;nan;101001.06;4971957;28;20481;-74
2023/09/03 06:13:11;;;;;;;8.20;4.45;;;;;;;17.51;nan;100999.56;4985060;28;20073;-75
2023/09/03 06:15:37;;;;;;;5.65;4.80;;;;;;;17.49;nan;100987.56;4987642;28;20049;-76
2023/09/03 06:18:02;;;;;;;7.85;4.38;;;;;;;17.71;nan;101003.41;4986282;28;20038;-76
2023/09/03 06:20:28;;;;;;;6.38;4.50;;;;;;;17.76;nan;100926.97;4970294;28;20025;-76
2023/09/03 06:22:53;;;;;;;6.25;4.32;;;;;;;;;;4988036;28;20026;-76
2023/09/03 06:25:18;;;;;;;10.20;4.78;;;;;;;;;;4973696;28;20460;-76
2023/09/03 06:27:43;;;;;;;10.40;4.88;;;;;;;;;;4985758;28;20026;-76
2023/09/03 06:30:10;;;;;;;8.10;4.75;;;;;;;18.07;nan;100985.78;4988876;28;20077;-76
2023/09/03 06:32:36;;;;;;;9.55;4.50;;;;;;;18.10;nan;100990.59;4988911;28;20480;-73
2023/09/03 06:35:02;;;;;;;11.38;4.07;;;;;;;;;;4989429;28;20042;-71
2023/09/03 06:37:27;;;;;;;7.82;4.60;;;;;;;;;;4983766;28;20489;-73
2023/09/03 06:39:53;;;;;;;6.32;4.78;;;;;;;;;;4987152;28;20075;-71
2023/09/03 06:42:18;;;;;;;10.05;5.00;;;;;;;18.54;nan;100950.19;4968286;28;20076;-72
2023/09/03 06:44:44;;;;;;;8.75;5.30;;;;;;;;;;4968438;28;20030;-74
2023/09/03 06:47:09;;;;;;;6.87;4.70;;;;;;;;;;4984702;28;20022;-72
2023/09/03 06:49:34;;;;;;;8.77;5.43;;;;;;;;;;4982859;28;20026;-71
2023/09/03 06:51:59;;;;;;;8.63;4.95;;;;;;;;;;4968778;28;20054;-73
2023/09/03 06:54:25;;;;;;;6.77;5.40;;;;;;;19.10;nan;100939.53;4985530;28;20029;-70
2023/09/03 06:56:50;;;;;;;9.20;4.88;;;;;;;19.12;nan;100909.94;4988242;28;20588;-71
2023/09/03 06:59:16;;;;;;;11.65;4.93;;;;;;;19.21;nan;100937.69;4986211;28;20540;-71
2023/09/03 07:01:41;;;;;;;8.00;4.65;;;;;;;19.28;nan;100972.91;4964586;28;20092;-71
2023/09/03 07:04:06;;;;;;;8.98;5.28;;;;;;;19.25;nan;100912.06;4985335;28;20157;-72
2023/09/03 07:06:32;;;;;;;7.60;5.20;;;;;;;19.46;nan;100931.47;4965525;28;20034;-73
2023/09/03 07:08:57;;;;;;;7.50;4.97;;;;;;;;;;4986779;28;20121;-73
2023/09/03 07:11:22;;;;;;;8.23;5.17;;;;;;;19.63;nan;100944.50;4985562;28;20489;-74
2023/09/03 07:13:49;;;;;;;8.25;5.47;;;;;;;;;;4985810;28;20320;-73
2023/09/03 07:16:14;;;;;;;6.93;5.28;;;;;;;19.85;nan;100946.91;4966685;28;20042;-69
2023/09/03 07:18:40;;;;;;;8.85;5.20;;;;;;;19.94;nan;100942.59;4987518;28;20490;-75
2023/09/03 07:21:06;;;;;;;9.63;5.28;;;;;;;19.98;nan;100937.47;4982776;28;20034;-71
2023/09/03 07:23:32;;;;;;;5.25;4.75;;;;;;;;;;4983958;28;20060;-72
2023/09/03 07:26:04;;;;;;;7.65;5.53;;;;;;;20.25;nan;101003.13;4982116;28;20026;-70
2023/09/03 07:28:30;;;;;;;6.35;5.20;;;;;;;20.33;nan;100987.31;4985456;28;20030;-70
2023/09/03 07:30:55;;;;;;;5.85;5.07;;;;;;;20.49;nan;101000.59;4967087;28;20066;-70
2023/09/03 07:33:20;;;;;;;7.15;5.15;;;;;;;20.54;nan;100996.03;4986404;28;20069;-70
2023/09/03 07:35:46;;;;;;;6.90;5.50;;;;;;;20.55;nan;100980.78;4987167;28;20527;-70
2023/09/03 07:38:11;;;;;;;7.57;5.43;;;;;;;20.67;nan;100980.47;4985328;28;20547;-70
2023/09/03 07:40:39;;;;;;;7.15;5.50;;;;;;;20.74;nan;100973.72;4966645;28;20056;-71
2023/09/03 07:43:05;;;;;;;8.47;5.80;;;;;;;20.76;nan;100968.88;4986733;28;20030;-70
2023/09/03 07:45:30;;;;;;;9.55;5.68;;;;;;;20.88;nan;100971.19;4984055;28;20638;-71
2023/09/03 07:47:56;;;;;;;7.22;5.13;;;;;;;21.00;nan;100973.53;4986799;28;20096;-72
2023/09/03 07:50:21;;;;;;;9.00;5.68;;;;;;;21.01;nan;100969.75;4984627;28;20058;-72
2023/09/03 07:52:47;;;;;;;10.02;5.57;;;;;;;21.02;nan;100961.44;4987233;28;20026;-74
2023/09/03 07:55:12;;;;;;;7.53;5.55;;;;;;;21.18;nan;100975.47;4986741;28;20050;-74
2023/09/03 07:57:37;;;;;;;7.05;6.18;;;;;;;21.21;nan;100963.41;4986240;28;20030;-74
2023/09/03 08:00:04;;;;;;;7.78;6.03;;;;;;;21.23;nan;100971.97;4987286;28;20431;-74
2023/09/03 08:02:29;;;;;;;7.05;6.18;;;;;;;21.33;nan;100979.09;4985161;28;20488;-74
2023/09/03 08:04:55;;;;;;;7.72;6.20;;;;;;;21.43;nan;100984.41;4985909;28;20080;-74
2023/09/03 08:07:20;;;;;;;8.65;6.60;;;;;;;21.42;nan;100983.59;4989594;28;20042;-74
2023/09/03 08:09:46;;;;;;;7.70;6.60;;;;;;;21.48;nan;100981.69;4990911;28;20026;-73
2023/09/03 08:12:11;;;;;;;8.73;7.20;;;;;;;21.68;nan;100994.06;4991154;28;20424;-74
2023/09/03 08:14:38;;;;;;;9.48;6.85;;;;;;;21.75;nan;100986.47;4988073;28;20489;-71
2023/09/03 08:17:04;;;;;;;10.13;7.22;;;;;;;21.91;nan;100997.81;4990664;28;20062;-72
2023/09/03 08:19:29;;;;;;;9.13;6.63;;;;;;;22.01;nan;100996.91;4989288;28;20777;-71
2023/09/03 08:21:55;;;;;;;15.68;6.10;;;;;;;22.08;nan;100995.47;4971755;28;20035;-72
2023/09/03 08:24:20;;;;;;;7.45;6.05;;;;;;;22.18;nan;100994.53;4970267;28;20485;-72
2023/09/03 08:26:48;;;;;;;8.32;5.80;;;;;;;22.23;nan;100999.84;4989867;28;20113;-71
2023/09/03 08:29:13;;;;;;;7.45;5.95;;;;;;;22.29;nan;100993.34;4985818;28;20105;-72
2023/09/03 08:31:38;;;;;;;10.52;5.75;;;;;;;22.40;nan;100998.56;4990172;28;20378;-73
2023/09/03 08:34:04;;;;;;;9.88;5.32;;;;;;;22.46;nan;101006.28;4989971;28;20033;-73
2023/09/03 08:36:29;;;;;;;10.25;5.72;;;;;;;22.46;nan;100987.47;4988635;28;20037;-71
2023/09/03 08:38:55;;;;;;;7.50;5.65;;;;;;;22.57;nan;100998.84;4989868;28;20030;-73
2023/09/03 08:41:22;;;;;;;7.75;5.38;;;;;;;22.71;nan;100998.94;4987969;28;20113;-73
2023/09/03 08:43:51;;;;;;;7.38;5.60;;;;;;;22.77;nan;100992.41;4990300;28;20109;-72
2023/09/03 08:46:19;;;;;;;7.55;5.32;;;;;;;22.86;nan;100989.84;4988450;28;20033;-72
2023/09/03 08:48:47;;;;;;;8.82;5.70;;;;;;;23.01;nan;100989.63;4987917;28;20128;-73
2023/09/03 08:51:12;;;;;;;7.07;5.60;;;;;;;23.06;nan;100981.47;4972179;28;20564;-72
2023/09/03 08:53:39;;;;;;;7.43;5.80;;;;;;;23.11;nan;100962.59;4989296;28;20113;-73
2023/09/03 08:56:04;;;;;;;6.82;5.18;;;;;;;23.21;nan;100950.88;4990100;28;20109;-71
2023/09/03 08:58:29;;;;;;;6.25;5.35;;;;;;;23.34;nan;100958.16;4989315;28;20053;-73
2023/09/03 09:00:55;;;;;;;12.73;5.72;;;;;;;23.48;nan;100954.66;4990147;28;20045;-73
2023/09/03 09:03:27;;;;;;;9.82;5.82;;;;;;;23.60;nan;100956.88;4969456;28;20552;-73
2023/09/03 09:05:54;;;;;;;6.32;5.20;;;;;;;23.74;nan;100949.63;4989542;28;20052;-73
2023/09/03 09:08:22;;;;;;;6.63;4.72;;;;;;;23.88;nan;100955.00;4986242;28;20027;-72
2023/09/03 09:10:51;;;;;;;7.43;4.93;;;;;;;23.96;nan;100955.06;4984937;28;20033;-72
2023/09/03 09:13:21;;;;;;;5.97;4.95;;;;;;;24.08;nan;100962.63;4980156;28;20043;-72
2023/09/03 09:15:46;;;;;;;6.07;4.88;;;;;;;24.31;nan;100968.84;5004160;28;20037;-73
2023/09/03 09:18:12;;;;;;;7.03;4.25;;;;;;;24.45;nan;100971.50;5002789;28;20029;-73
2023/09/03 09:20:39;;;;;;;7.00;5.10;;;;;;;24.63;nan;100980.53;5006743;28;20570;-72
2023/09/03 09:23:04;;;;;;;6.15;5.03;;;;;;;24.74;nan;100981.91;5006599;28;20030;-75
2023/09/03 09:25:30;;;;;;;9.88;5.25;;;;;;;24.81;nan;100968.78;5008169;28;20480;-71
2023/09/03 09:27:57;;;;;;;6.90;5.30;;;;;;;24.90;nan;100971.56;5006958;28;20424;-70
2023/09/03 09:30:26;;;;;;;5.82;5.13;;;;;;;24.93;nan;100956.69;4989409;28;20104;-70
2023/09/03 09:33:06;;;;;;;8.63;5.13;;;;;;;25.00;nan;100940.88;5007178;28;20108;-72
2023/09/03 09:35:31;;;;;;;10.02;5.40;;;;;;;25.09;nan;100940.88;5009397;28;20052;-72
2023/09/03 09:38:05;;;;;;;6.10;4.60;;;;;;;25.27;nan;100958.78;5006000;28;20034;-74
2023/09/03 09:40:31;;;;;;;5.97;4.95;;;;;;;25.42;nan;100961.06;5007086;28;20060;-71
2023/09/03 09:43:00;;;;;;;8.98;5.47;;;;;;;25.53;nan;100960.78;5006745;28;20062;-71
2023/09/03 09:45:26;;;;;;;7.70;4.55;;;;;;;25.70;nan;100955.44;5005345;28;20553;-71
2023/09/03 09:48:06;;;;;;;4.90;3.65;;;;;;;25.88;nan;100959.81;4985138;28;20041;-72
2023/09/03 09:50:39;;;;;;;7.00;3.90;;;;;;;25.97;nan;100951.72;5006898;28;20025;-72
2023/09/03 09:53:18;;;;;;;6.32;4.22;;;;;;;26.06;nan;100952.53;5006144;28;20092;-72
2023/09/03 09:55:46;;;;;;;8.98;5.03;;;;;;;26.14;nan;100945.53;5006173;28;20080;-72
2023/09/03 09:58:12;;;;;;;6.50;4.45;;;;;;;26.27;nan;100949.22;4991007;28;20117;-73
2023/09/03 10:00:41;;;;;;;8.40;4.10;;;;;;;26.34;nan;100949.53;5006526;28;20117;-73
2023/09/03 10:03:15;;;;;;;5.43;3.67;;;;;;;26.42;nan;100942.53;4988591;28;20392;-72
2023/09/03 10:05:50;;;;;;;5.80;3.80;;;;;;;26.46;nan;100946.97;5007127;28;20038;-73
2023/09/03 10:08:19;;;;;;;6.95;3.80;;;;;;;26.39;nan;100922.38;4988968;28;20095;-73
2023/09/03 10:10:44;;;;;;;7.82;4.38;;;;;;;26.48;nan;100938.53;5003833;28;20479;-72
2023/09/03 10:13:09;;;;;;;4.85;3.97;;;;;;;26.56;nan;100934.31;5002093;28;20061;-73
2023/09/03 10:15:38;;;;;;;5.65;4.18;;;;;;;26.59;nan;100939.06;4987696;28;20486;-72
2023/09/03 10:18:04;;;;;;;;;;;;;;;26.61;nan;100948.41;5005599;28;20077;-72
2023/09/03 10:20:30;;;;;;;6.03;4.20;;;;;;;26.61;nan;100948.41;5003321;28;20387;-72
2023/09/03 10:23:01;;;;;;;7.32;3.40;;;;;;;26.61;nan;100939.53;5005844;28;20030;-71
2023/09/03 10:25:29;;;;;;;5.60;3.85;;;;;;;26.64;nan;100941.59;5002112;28;20034;-73
2023/09/03 10:28:03;;;;;;;7.78;3.55;;;;;;;26.71;nan;100936.50;5003549;28;20117;-75
2023/09/03 10:30:39;;;;;;;6.68;3.65;;;;;;;26.75;nan;100931.25;4983697;28;20069;-74
2023/09/03 10:33:07;;;;;;;4.97;3.75;;;;;;;26.81;nan;100928.03;5007130;28;20057;-73
2023/09/03 10:35:32;;;;;;;4.05;3.60;;;;;;;26.88;nan;100920.22;5002643;28;20384;-72
2023/09/03 10:37:57;;;;;;;6.82;3.80;;;;;;;26.92;nan;100921.19;5003617;28;20038;-73
2023/09/03 10:40:25;;;;;;;6.05;3.80;;;;;;;27.10;nan;100921.91;4985639;28;20480;-72
2023/09/03 10:43:11;;;;;;;5.85;3.45;;;;;;;27.21;nan;100911.56;5002505;28;20017;-72
2023/09/03 10:45:36;;;;;;;5.63;3.72;;;;;;;27.16;nan;100895.50;4996277;28;20048;-72
2023/09/03 10:48:04;;;;;;;6.65;3.70;;;;;;;27.23;nan;100903.94;5001404;28;20432;-73
2023/09/03 10:50:43;;;;;;;10.10;3.65;;;;;;;27.21;nan;100900.75;4999443;28;20049;-72
2023/09/03 10:53:29;;;;;;;9.70;3.58;;;;;;;27.23;nan;100892.31;5002434;28;20028;-72
2023/09/03 10:56:10;;;;;;;9.52;3.85;;;;;;;27.30;nan;100882.56;5004357;28;20033;-69
2023/09/03 10:59:01;;;;;;;5.63;3.28;;;;;;;27.41;nan;100879.50;5005021;28;20494;-71
2023/09/03 11:01:31;;;;;;;4.22;3.42;;;;;;;27.41;nan;100863.25;5002864;28;20072;-73
2023/09/03 11:04:01;;;;;;;9.98;3.38;;;;;;;27.57;nan;100859.66;5004976;28;20041;-71
2023/09/03 11:06:34;;;;;;;8.55;3.38;;;;;;;27.71;nan;100862.13;5003918;28;20030;-73
2023/09/03 11:09:03;;;;;;;5.32;3.83;;;;;;;27.77;nan;100862.69;4985522;28;20571;-71
2023/09/03 11:11:33;;;;;;;7.47;3.25;;;;;;;27.76;nan;100851.09;4999222;28;20068;-69
2023/09/03 11:14:02;;;;;;;3.95;3.08;;;;;;;27.88;nan;100855.00;4984533;28;20149;-72
2023/09/03 11:16:31;;;;;;;;;;;;;;;27.95;nan;100856.06;4983589;28;20130;-71
2023/09/03 11:18:57;;;;;;;6.82;3.08;;;;;;;28.02;nan;100846.63;4985008;28;19968;-70
2023/09/03 11:21:24;;;;;;;7.32;3.30;;;;;;;28.10;nan;100846.53;4986107;28;20053;-70
2023/09/03 11:24:14;;;;;;;3.67;2.92;;;;;;;28.17;nan;100838.66;4969132;28;20042;-69
2023/09/03 11:26:41;;;;;;;4.63;2.97;;;;;;;28.30;nan;100850.34;4969001;28;20066;-69
2023/09/03 11:29:19;;;;;;;8.88;3.50;;;;;;;28.10;nan;100834.91;4985484;28;20532;-69
2023/09/03 11:31:51;;;;;;;6.63;3.33;;;;;;;28.02;nan;100850.13;4968930;28;20080;-68
2023/09/03 11:34:28;;;;;;;4.20;3.50;;;;;;;27.70;nan;100830.78;4985609;28;20030;-68
2023/09/03 11:36:58;;;;;;;8.05;3.53;;;;;;;27.56;nan;100835.66;4986163;28;20515;-70
2023/09/03 11:39:27;;;;;;;6.70;3.17;;;;;;;27.44;nan;100828.25;4966165;28;20065;-72
2023/09/03 11:41:52;;;;;;;10.68;3.47;;;;;;;27.45;nan;100827.13;4986979;28;20030;-70
2023/09/03 11:44:25;;;;;;;4.80;3.25;;;;;;;27.62;nan;100837.03;4989515;28;20038;-68
2023/09/03 11:47:00;;;;;;;7.18;2.90;;;;;;;27.49;nan;100838.88;4988738;28;20026;-68
2023/09/03 11:49:26;;;;;;;9.15;3.58;;;;;;;27.46;nan;100836.03;4991004;28;20063;-74